sensor_id;sensor_type;location;lat;lon;timestamp;temperature;humidity
10249;DHT22;5169;50.560;9.714;2022-11-12T00:01:13;5.70;99.90
10249;DHT22;5169;50.560;9.714;2022-11-12T00:03:39;5.70;99.90
10249;DHT22;5169;50.560;9.714;2022-11-12T00:06:07;5.70;99.90
10249;DHT22;5169;50.560;9.714;2022-11-12T00:08:33;5.70;99.90
10249;DHT22;5169;50.560;9.714;2022-11-12T00:11:08;5.70;99.90
10249;DHT22;5169;50.560;9.714;2022-11-12T00:13:39;5.70;99.90
10249;DHT22;5169;50.560;9.714;2022-11-12T00:16:05;5.70;99.90
10249;DHT22;5169;50.560;9.714;2022-11-12T00:18:30;5.70;99.90
10249;DHT22;5169;50.560;9.714;2022-11-12T00:20:56;5.70;99.90
10249;DHT22;5169;50.560;9.714;2022-11-12T00:23:25;5.70;99.90
10249;DHT22;5169;50.560;9.714;2022-11-12T00:26:01;5.70;99.90
10249;DHT22;5169;50.560;9.714;2022-11-12T00:28:29;5.70;99.90
10249;DHT22;5169;50.560;9.714;2022-11-12T00:30:55;5.80;99.90
10249;DHT22;5169;50.560;9.714;2022-11-12T00:33:20;5.80;99.90
10249;DHT22;5169;50.560;9.714;2022-11-12T00:35:49;5.70;99.90
10249;DHT22;5169;50.560;9.714;2022-11-12T00:38:15;5.80;99.90
10249;DHT22;5169;50.560;9.714;2022-11-12T00:40:40;5.80;99.90
10249;DHT22;5169;50.560;9.714;2022-11-12T00:43:07;5.80;99.90
10249;DHT22;5169;50.560;9.714;2022-11-12T00:45:32;5.80;99.90
10249;DHT22;5169;50.560;9.714;2022-11-12T00:48:07;5.80;99.90
10249;DHT22;5169;50.560;9.714;2022-11-12T00:50:38;5.80;99.90
10249;DHT22;5169;50.560;9.714;2022-11-12T00:53:03;5.60;99.90
10249;DHT22;5169;50.560;9.714;2022-11-12T00:55:31;5.50;99.90
10249;DHT22;5169;50.560;9.714;2022-11-12T00:58:04;5.50;99.90
10249;DHT22;5169;50.560;9.714;2022-11-12T01:00:30;5.50;99.90
10249;DHT22;5169;50.560;9.714;2022-11-12T01:02:55;5.50;99.90
10249;DHT22;5169;50.560;9.714;2022-11-12T01:05:21;5.50;99.90
10249;DHT22;5169;50.560;9.714;2022-11-12T01:07:54;5.60;99.90
10249;DHT22;5169;50.560;9.714;2022-11-12T01:10:29;5.70;99.90
10249;DHT22;5169;50.560;9.714;2022-11-12T01:12:55;5.70;99.90
10249;DHT22;5169;50.560;9.714;2022-11-12T01:15:27;5.50;99.90
10249;DHT22;5169;50.560;9.714;2022-11-12T01:17:55;5.40;99.90
10249;DHT22;5169;50.560;9.714;2022-11-12T01:20:24;5.30;99.90
10249;DHT22;5169;50.560;9.714;2022-11-12T01:22:52;5.30;99.90
10249;DHT22;5169;50.560;9.714;2022-11-12T01:25:17;5.30;99.90
10249;DHT22;5169;50.560;9.714;2022-11-12T01:27:43;5.40;99.90
10249;DHT22;5169;50.560;9.714;2022-11-12T01:30:17;5.60;99.90
10249;DHT22;5169;50.560;9.714;2022-11-12T01:32:43;5.70;99.90
10249;DHT22;5169;50.560;9.714;2022-11-12T01:35:13;5.70;99.90
10249;DHT22;5169;50.560;9.714;2022-11-12T01:37:39;5.70;99.90
10249;DHT22;5169;50.560;9.714;2022-11-12T01:40:05;5.50;99.90
10249;DHT22;5169;50.560;9.714;2022-11-12T01:42:32;5.60;99.90
10249;DHT22;5169;50.560;9.714;2022-11-12T01:45:15;5.50;99.90
10249;DHT22;5169;50.560;9.714;2022-11-12T01:47:41;5.50;99.90
10249;DHT22;5169;50.560;9.714;2022-11-12T01:53:16;5.50;99.90
10249;DHT22;5169;50.560;9.714;2022-11-12T01:55:42;5.30;99.90
10249;DHT22;5169;50.560;9.714;2022-11-12T01:58:15;5.20;99.90
10249;DHT22;5169;50.560;9.714;2022-11-12T02:00:42;5.20;99.90
10249;DHT22;5169;50.560;9.714;2022-11-12T02:03:12;5.20;99.90
10249;DHT22;5169;50.560;9.714;2022-11-12T02:05:42;5.10;99.90
10249;DHT22;5169;50.560;9.714;2022-11-12T02:08:12;5.10;99.90
10249;DHT22;5169;50.560;9.714;2022-11-12T02:10:39;5.10;99.90
10249;DHT22;5169;50.560;9.714;2022-11-12T02:13:05;5.00;99.90
10249;DHT22;5169;50.560;9.714;2022-11-12T02:16:02;5.00;99.90
10249;DHT22;5169;50.560;9.714;2022-11-12T02:18:28;5.00;99.90
10249;DHT22;5169;50.560;9.714;2022-11-12T02:20:56;5.10;99.90
10249;DHT22;5169;50.560;9.714;2022-11-12T02:23:30;5.20;99.90
10249;DHT22;5169;50.560;9.714;2022-11-12T02:26:01;5.20;99.90
10249;DHT22;5169;50.560;9.714;2022-11-12T02:28:32;5.10;99.90
10249;DHT22;5169;50.560;9.714;2022-11-12T02:31:03;5.10;99.90
10249;DHT22;5169;50.560;9.714;2022-11-12T02:33:29;5.00;99.90
10249;DHT22;5169;50.560;9.714;2022-11-12T02:35:55;5.00;99.90
10249;DHT22;5169;50.560;9.714;2022-11-12T02:38:20;4.90;99.90
10249;DHT22;5169;50.560;9.714;2022-11-12T02:40:54;4.80;99.90
10249;DHT22;5169;50.560;9.714;2022-11-12T02:43:19;4.80;99.90
10249;DHT22;5169;50.560;9.714;2022-11-12T02:45:45;4.70;99.90
10249;DHT22;5169;50.560;9.714;2022-11-12T02:48:27;4.70;99.90
10249;DHT22;5169;50.560;9.714;2022-11-12T02:50:52;4.70;99.90
10249;DHT22;5169;50.560;9.714;2022-11-12T02:53:20;4.80;99.90
10249;DHT22;5169;50.560;9.714;2022-11-12T02:55:46;4.80;99.90
10249;DHT22;5169;50.560;9.714;2022-11-12T02:58:20;4.80;99.90
10249;DHT22;5169;50.560;9.714;2022-11-12T03:00:52;4.90;99.90
10249;DHT22;5169;50.560;9.714;2022-11-12T03:03:17;4.80;99.90
10249;DHT22;5169;50.560;9.714;2022-11-12T03:05:44;5.00;99.90
10249;DHT22;5169;50.560;9.714;2022-11-12T03:08:10;4.90;99.90
10249;DHT22;5169;50.560;9.714;2022-11-12T03:10:41;4.80;99.90
10249;DHT22;5169;50.560;9.714;2022-11-12T03:13:07;4.60;99.90
10249;DHT22;5169;50.560;9.714;2022-11-12T03:15:32;4.70;99.90
10249;DHT22;5169;50.560;9.714;2022-11-12T03:18:05;4.60;99.90
10249;DHT22;5169;50.560;9.714;2022-11-12T03:20:33;4.60;99.90
10249;DHT22;5169;50.560;9.714;2022-11-12T03:23:08;4.60;99.90
10249;DHT22;5169;50.560;9.714;2022-11-12T03:25:38;4.50;99.90
10249;DHT22;5169;50.560;9.714;2022-11-12T03:28:10;4.50;99.90
10249;DHT22;5169;50.560;9.714;2022-11-12T03:30:45;4.50;99.90
10249;DHT22;5169;50.560;9.714;2022-11-12T03:33:14;4.60;99.90
10249;DHT22;5169;50.560;9.714;2022-11-12T03:35:43;4.60;99.90
10249;DHT22;5169;50.560;9.714;2022-11-12T03:38:09;4.60;99.90
10249;DHT22;5169;50.560;9.714;2022-11-12T03:40:40;4.60;99.90
10249;DHT22;5169;50.560;9.714;2022-11-12T03:43:06;4.60;99.90
10249;DHT22;5169;50.560;9.714;2022-11-12T03:45:32;4.70;99.90
10249;DHT22;5169;50.560;9.714;2022-11-12T03:48:03;4.70;99.90
10249;DHT22;5169;50.560;9.714;2022-11-12T03:50:29;4.70;99.90
10249;DHT22;5169;50.560;9.714;2022-11-12T03:52:58;4.70;99.90
10249;DHT22;5169;50.560;9.714;2022-11-12T03:55:28;4.70;99.90
10249;DHT22;5169;50.560;9.714;2022-11-12T03:57:55;4.80;99.90
10249;DHT22;5169;50.560;9.714;2022-11-12T04:00:22;4.80;99.90
10249;DHT22;5169;50.560;9.714;2022-11-12T04:02:55;4.80;99.90
10249;DHT22;5169;50.560;9.714;2022-11-12T04:05:29;4.80;99.90
10249;DHT22;5169;50.560;9.714;2022-11-12T04:08:18;4.70;99.90
10249;DHT22;5169;50.560;9.714;2022-11-12T04:11:09;4.60;99.90
10249;DHT22;5169;50.560;9.714;2022-11-12T04:13:41;4.60;99.90
10249;DHT22;5169;50.560;9.714;2022-11-12T04:16:09;4.50;99.90
10249;DHT22;5169;50.560;9.714;2022-11-12T04:18:55;4.50;99.90
10249;DHT22;5169;50.560;9.714;2022-11-12T04:21:42;4.60;99.90
10249;DHT22;5169;50.560;9.714;2022-11-12T04:24:31;4.60;99.90
10249;DHT22;5169;50.560;9.714;2022-11-12T04:27:31;4.50;99.90
10249;DHT22;5169;50.560;9.714;2022-11-12T04:30:03;4.50;99.90
10249;DHT22;5169;50.560;9.714;2022-11-12T04:32:54;4.50;99.90
10249;DHT22;5169;50.560;9.714;2022-11-12T04:35:31;4.60;99.90
10249;DHT22;5169;50.560;9.714;2022-11-12T04:37:56;4.60;99.90
10249;DHT22;5169;50.560;9.714;2022-11-12T04:40:26;4.60;99.90
10249;DHT22;5169;50.560;9.714;2022-11-12T04:43:15;4.50;99.90
10249;DHT22;5169;50.560;9.714;2022-11-12T04:46:04;4.50;99.90
10249;DHT22;5169;50.560;9.714;2022-11-12T04:48:42;4.50;99.90
10249;DHT22;5169;50.560;9.714;2022-11-12T04:51:07;4.50;99.90
10249;DHT22;5169;50.560;9.714;2022-11-12T04:53:51;4.50;99.90
10249;DHT22;5169;50.560;9.714;2022-11-12T04:56:19;4.50;99.90
10249;DHT22;5169;50.560;9.714;2022-11-12T04:58:45;4.50;99.90
10249;DHT22;5169;50.560;9.714;2022-11-12T05:01:20;4.50;99.90
10249;DHT22;5169;50.560;9.714;2022-11-12T05:03:45;4.50;99.90
10249;DHT22;5169;50.560;9.714;2022-11-12T05:06:15;4.50;99.90
10249;DHT22;5169;50.560;9.714;2022-11-12T05:08:59;4.60;99.90
10249;DHT22;5169;50.560;9.714;2022-11-12T05:11:28;4.50;99.90
10249;DHT22;5169;50.560;9.714;2022-11-12T05:13:56;4.60;99.90
10249;DHT22;5169;50.560;9.714;2022-11-12T05:16:22;4.60;99.90
10249;DHT22;5169;50.560;9.714;2022-11-12T05:18:54;4.70;99.90
10249;DHT22;5169;50.560;9.714;2022-11-12T05:21:19;4.70;99.90
10249;DHT22;5169;50.560;9.714;2022-11-12T05:24:04;4.70;99.90
10249;DHT22;5169;50.560;9.714;2022-11-12T05:26:29;4.70;99.90
10249;DHT22;5169;50.560;9.714;2022-11-12T05:28:55;4.80;99.90
10249;DHT22;5169;50.560;9.714;2022-11-12T05:31:21;4.70;99.90
10249;DHT22;5169;50.560;9.714;2022-11-12T05:33:46;4.60;99.90
10249;DHT22;5169;50.560;9.714;2022-11-12T05:36:16;4.70;99.90
10249;DHT22;5169;50.560;9.714;2022-11-12T05:38:42;4.60;99.90
10249;DHT22;5169;50.560;9.714;2022-11-12T05:41:10;4.60;99.90
10249;DHT22;5169;50.560;9.714;2022-11-12T05:43:42;4.50;99.90
10249;DHT22;5169;50.560;9.714;2022-11-12T05:46:10;4.60;99.90
10249;DHT22;5169;50.560;9.714;2022-11-12T05:48:44;4.70;99.90
10249;DHT22;5169;50.560;9.714;2022-11-12T05:51:10;4.70;99.90
10249;DHT22;5169;50.560;9.714;2022-11-12T05:53:45;4.60;99.90
10249;DHT22;5169;50.560;9.714;2022-11-12T05:56:15;4.50;99.90
10249;DHT22;5169;50.560;9.714;2022-11-12T05:58:41;4.40;99.90
10249;DHT22;5169;50.560;9.714;2022-11-12T06:01:07;4.30;99.90
10249;DHT22;5169;50.560;9.714;2022-11-12T06:03:35;4.50;99.90
10249;DHT22;5169;50.560;9.714;2022-11-12T06:06:04;4.60;99.90
10249;DHT22;5169;50.560;9.714;2022-11-12T06:08:29;4.60;99.90
10249;DHT22;5169;50.560;9.714;2022-11-12T06:10:55;4.50;99.90
10249;DHT22;5169;50.560;9.714;2022-11-12T06:13:32;4.30;99.90
10249;DHT22;5169;50.560;9.714;2022-11-12T06:15:58;4.20;99.90
10249;DHT22;5169;50.560;9.714;2022-11-12T06:18:27;4.00;99.90
10249;DHT22;5169;50.560;9.714;2022-11-12T06:21:09;4.00;99.90
10249;DHT22;5169;50.560;9.714;2022-11-12T06:23:56;4.00;99.90
10249;DHT22;5169;50.560;9.714;2022-11-12T06:26:28;4.00;99.90
10249;DHT22;5169;50.560;9.714;2022-11-12T06:28:54;3.90;99.90
10249;DHT22;5169;50.560;9.714;2022-11-12T06:31:23;3.90;99.90
10249;DHT22;5169;50.560;9.714;2022-11-12T06:33:55;4.00;99.90
10249;DHT22;5169;50.560;9.714;2022-11-12T06:36:23;4.00;99.90
10249;DHT22;5169;50.560;9.714;2022-11-12T06:38:52;4.00;99.90
10249;DHT22;5169;50.560;9.714;2022-11-12T06:41:17;4.00;99.90
10249;DHT22;5169;50.560;9.714;2022-11-12T06:43:43;4.00;99.90
10249;DHT22;5169;50.560;9.714;2022-11-12T06:46:17;4.10;99.90
10249;DHT22;5169;50.560;9.714;2022-11-12T06:48:43;4.20;99.90
10249;DHT22;5169;50.560;9.714;2022-11-12T06:51:16;4.20;99.90
10249;DHT22;5169;50.560;9.714;2022-11-12T06:53:45;4.30;99.90
10249;DHT22;5169;50.560;9.714;2022-11-12T06:56:16;4.40;99.90
10249;DHT22;5169;50.560;9.714;2022-11-12T06:58:46;4.50;99.90
10249;DHT22;5169;50.560;9.714;2022-11-12T07:01:16;4.80;99.90
10249;DHT22;5169;50.560;9.714;2022-11-12T07:03:43;5.10;99.90
10249;DHT22;5169;50.560;9.714;2022-11-12T07:06:11;5.20;99.90
10249;DHT22;5169;50.560;9.714;2022-11-12T07:08:41;5.30;99.90
10249;DHT22;5169;50.560;9.714;2022-11-12T07:11:07;5.30;99.90
10249;DHT22;5169;50.560;9.714;2022-11-12T07:13:34;5.40;99.90
10249;DHT22;5169;50.560;9.714;2022-11-12T07:16:06;5.40;99.90
10249;DHT22;5169;50.560;9.714;2022-11-12T07:18:42;5.40;99.90
10249;DHT22;5169;50.560;9.714;2022-11-12T07:21:11;5.70;99.90
10249;DHT22;5169;50.560;9.714;2022-11-12T07:23:44;5.90;99.90
10249;DHT22;5169;50.560;9.714;2022-11-12T07:26:24;6.00;99.90
10249;DHT22;5169;50.560;9.714;2022-11-12T07:28:54;6.00;99.90
10249;DHT22;5169;50.560;9.714;2022-11-12T07:31:21;6.10;99.90
10249;DHT22;5169;50.560;9.714;2022-11-12T07:33:47;6.20;99.90
10249;DHT22;5169;50.560;9.714;2022-11-12T07:36:20;6.30;99.90
10249;DHT22;5169;50.560;9.714;2022-11-12T07:38:49;6.30;99.90
10249;DHT22;5169;50.560;9.714;2022-11-12T07:41:20;6.50;99.90
10249;DHT22;5169;50.560;9.714;2022-11-12T07:43:48;6.60;99.90
10249;DHT22;5169;50.560;9.714;2022-11-12T07:46:25;6.70;99.90
10249;DHT22;5169;50.560;9.714;2022-11-12T07:48:57;6.70;99.90
10249;DHT22;5169;50.560;9.714;2022-11-12T07:51:25;6.70;99.90
10249;DHT22;5169;50.560;9.714;2022-11-12T07:53:56;6.90;99.90
10249;DHT22;5169;50.560;9.714;2022-11-12T07:56:23;7.10;99.90
10249;DHT22;5169;50.560;9.714;2022-11-12T07:58:50;7.10;99.90
10249;DHT22;5169;50.560;9.714;2022-11-12T08:01:33;7.00;99.90
10249;DHT22;5169;50.560;9.714;2022-11-12T08:04:00;6.90;99.90
10249;DHT22;5169;50.560;9.714;2022-11-12T08:06:33;6.80;99.90
10249;DHT22;5169;50.560;9.714;2022-11-12T08:09:08;6.70;99.90
10249;DHT22;5169;50.560;9.714;2022-11-12T08:11:35;6.70;99.90
10249;DHT22;5169;50.560;9.714;2022-11-12T08:14:06;6.80;99.90
10249;DHT22;5169;50.560;9.714;2022-11-12T08:16:32;7.00;99.90
10249;DHT22;5169;50.560;9.714;2022-11-12T08:18:59;7.00;99.90
10249;DHT22;5169;50.560;9.714;2022-11-12T08:21:33;7.20;99.90
10249;DHT22;5169;50.560;9.714;2022-11-12T08:23:59;7.40;99.90
10249;DHT22;5169;50.560;9.714;2022-11-12T08:26:24;7.50;99.90
10249;DHT22;5169;50.560;9.714;2022-11-12T08:28:56;7.50;99.90
10249;DHT22;5169;50.560;9.714;2022-11-12T08:31:24;7.70;99.90
10249;DHT22;5169;50.560;9.714;2022-11-12T08:34:00;7.80;99.90
10249;DHT22;5169;50.560;9.714;2022-11-12T08:36:43;8.00;99.90
10249;DHT22;5169;50.560;9.714;2022-11-12T08:39:09;8.20;99.90
10249;DHT22;5169;50.560;9.714;2022-11-12T08:41:35;8.30;99.90
10249;DHT22;5169;50.560;9.714;2022-11-12T08:44:01;8.30;99.90
10249;DHT22;5169;50.560;9.714;2022-11-12T08:46:33;8.40;99.90
10249;DHT22;5169;50.560;9.714;2022-11-12T08:48:59;8.50;99.90
10249;DHT22;5169;50.560;9.714;2022-11-12T08:51:32;8.20;99.90
10249;DHT22;5169;50.560;9.714;2022-11-12T08:54:00;8.50;99.90
10249;DHT22;5169;50.560;9.714;2022-11-12T09:00:13;8.70;99.90
10249;DHT22;5169;50.560;9.714;2022-11-12T09:02:39;9.10;99.90
10249;DHT22;5169;50.560;9.714;2022-11-12T09:05:05;9.50;99.90
10249;DHT22;5169;50.560;9.714;2022-11-12T09:07:33;9.50;99.90
10249;DHT22;5169;50.560;9.714;2022-11-12T09:09:59;9.40;99.90
10249;DHT22;5169;50.560;9.714;2022-11-12T09:12:33;9.30;99.90
10249;DHT22;5169;50.560;9.714;2022-11-12T09:14:59;9.40;99.90
10249;DHT22;5169;50.560;9.714;2022-11-12T09:17:24;10.10;99.90
10249;DHT22;5169;50.560;9.714;2022-11-12T09:19:56;10.60;99.90
10249;DHT22;5169;50.560;9.714;2022-11-12T09:22:21;10.70;99.90
10249;DHT22;5169;50.560;9.714;2022-11-12T09:24:47;11.20;99.90
10249;DHT22;5169;50.560;9.714;2022-11-12T09:27:13;11.20;99.90
10249;DHT22;5169;50.560;9.714;2022-11-12T09:29:44;11.50;99.90
10249;DHT22;5169;50.560;9.714;2022-11-12T09:32:09;12.20;99.90
10249;DHT22;5169;50.560;9.714;2022-11-12T09:34:37;13.10;99.90
10249;DHT22;5169;50.560;9.714;2022-11-12T09:37:10;13.50;99.90
10249;DHT22;5169;50.560;9.714;2022-11-12T09:39:36;14.00;99.90
10249;DHT22;5169;50.560;9.714;2022-11-12T09:42:13;13.90;99.90
10249;DHT22;5169;50.560;9.714;2022-11-12T09:44:58;13.90;99.90
10249;DHT22;5169;50.560;9.714;2022-11-12T09:47:32;14.00;99.90
10249;DHT22;5169;50.560;9.714;2022-11-12T09:50:25;13.90;99.90
10249;DHT22;5169;50.560;9.714;2022-11-12T09:53:09;14.40;99.90
10249;DHT22;5169;50.560;9.714;2022-11-12T09:55:50;14.30;99.90
10249;DHT22;5169;50.560;9.714;2022-11-12T09:58:24;14.00;99.90
10249;DHT22;5169;50.560;9.714;2022-11-12T10:01:01;14.20;99.90
10249;DHT22;5169;50.560;9.714;2022-11-12T10:03:57;14.70;99.90
10249;DHT22;5169;50.560;9.714;2022-11-12T10:18:14;16.40;99.80
10249;DHT22;5169;50.560;9.714;2022-11-12T10:23:52;16.60;99.00
10249;DHT22;5169;50.560;9.714;2022-11-12T10:26:24;16.70;98.80
10249;DHT22;5169;50.560;9.714;2022-11-12T10:31:40;16.00;99.70
10249;DHT22;5169;50.560;9.714;2022-11-12T10:34:16;16.10;99.50
10249;DHT22;5169;50.560;9.714;2022-11-12T10:39:40;15.80;99.90
10249;DHT22;5169;50.560;9.714;2022-11-12T10:42:15;15.60;99.90
10249;DHT22;5169;50.560;9.714;2022-11-12T10:44:50;15.50;99.90
10249;DHT22;5169;50.560;9.714;2022-11-12T10:50:30;15.70;99.90
10249;DHT22;5169;50.560;9.714;2022-11-12T10:53:04;16.00;99.90
10249;DHT22;5169;50.560;9.714;2022-11-12T10:55:35;16.60;99.60
10249;DHT22;5169;50.560;9.714;2022-11-12T10:58:17;17.50;97.80
10249;DHT22;5169;50.560;9.714;2022-11-12T11:03:27;18.50;95.90
10249;DHT22;5169;50.560;9.714;2022-11-12T11:06:01;18.60;95.70
10249;DHT22;5169;50.560;9.714;2022-11-12T11:08:43;18.10;95.70
10249;DHT22;5169;50.560;9.714;2022-11-12T11:14:26;17.50;97.20
10249;DHT22;5169;50.560;9.714;2022-11-12T11:17:03;17.20;97.50
10249;DHT22;5169;50.560;9.714;2022-11-12T11:19:50;16.80;97.80
10249;DHT22;5169;50.560;9.714;2022-11-12T11:22:21;17.50;97.40
10249;DHT22;5169;50.560;9.714;2022-11-12T11:24:56;17.90;96.70
10249;DHT22;5169;50.560;9.714;2022-11-12T11:30:17;16.80;97.60
10249;DHT22;5169;50.560;9.714;2022-11-12T11:44:16;17.40;96.90
10249;DHT22;5169;50.560;9.714;2022-11-12T11:52:01;17.50;96.70
10249;DHT22;5169;50.560;9.714;2022-11-12T11:57:28;17.70;96.60
10249;DHT22;5169;50.560;9.714;2022-11-12T12:00:17;17.70;96.20
10249;DHT22;5169;50.560;9.714;2022-11-12T12:08:33;16.60;98.20
10249;DHT22;5169;50.560;9.714;2022-11-12T12:20:38;16.40;99.40
10249;DHT22;5169;50.560;9.714;2022-11-12T12:22:44;16.30;99.90
10249;DHT22;5169;50.560;9.714;2022-11-12T12:25:30;16.30;99.90
10249;DHT22;5169;50.560;9.714;2022-11-12T12:28:09;16.30;99.90
10249;DHT22;5169;50.560;9.714;2022-11-12T12:30:46;16.10;99.90
10249;DHT22;5169;50.560;9.714;2022-11-12T12:36:06;16.10;99.90
10249;DHT22;5169;50.560;9.714;2022-11-12T12:38:51;15.90;99.90
10249;DHT22;5169;50.560;9.714;2022-11-12T12:44:15;15.70;99.90
10249;DHT22;5169;50.560;9.714;2022-11-12T12:47:12;15.40;99.90
10249;DHT22;5169;50.560;9.714;2022-11-12T12:49:40;15.60;99.90
10249;DHT22;5169;50.560;9.714;2022-11-12T12:52:15;16.00;99.90
10249;DHT22;5169;50.560;9.714;2022-11-12T12:57:36;16.70;99.50
10249;DHT22;5169;50.560;9.714;2022-11-12T13:03:00;17.20;98.90
10249;DHT22;5169;50.560;9.714;2022-11-12T13:05:37;17.00;99.20
10249;DHT22;5169;50.560;9.714;2022-11-12T13:08:29;16.90;99.40
10249;DHT22;5169;50.560;9.714;2022-11-12T13:11:00;16.70;99.70
10249;DHT22;5169;50.560;9.714;2022-11-12T13:13:38;16.70;99.70
10249;DHT22;5169;50.560;9.714;2022-11-12T13:16:06;16.60;99.80
10249;DHT22;5169;50.560;9.714;2022-11-12T13:21:20;16.00;99.80
10249;DHT22;5169;50.560;9.714;2022-11-12T13:23:51;15.70;99.90
10249;DHT22;5169;50.560;9.714;2022-11-12T13:32:25;15.10;99.90
10249;DHT22;5169;50.560;9.714;2022-11-12T13:35:31;15.10;99.90
10249;DHT22;5169;50.560;9.714;2022-11-12T13:46:31;14.80;99.90
10249;DHT22;5169;50.560;9.714;2022-11-12T13:49:12;14.70;99.90
10249;DHT22;5169;50.560;9.714;2022-11-12T13:51:47;14.60;99.90
10249;DHT22;5169;50.560;9.714;2022-11-12T13:54:32;14.50;99.90
10249;DHT22;5169;50.560;9.714;2022-11-12T13:59:48;14.20;99.90
10249;DHT22;5169;50.560;9.714;2022-11-12T14:02:25;14.20;99.90
10249;DHT22;5169;50.560;9.714;2022-11-12T14:04:57;14.00;99.90
10249;DHT22;5169;50.560;9.714;2022-11-12T14:10:24;13.80;99.90
10249;DHT22;5169;50.560;9.714;2022-11-12T14:13:12;13.70;99.90
10249;DHT22;5169;50.560;9.714;2022-11-12T14:21:22;13.50;99.90
10249;DHT22;5169;50.560;9.714;2022-11-12T14:23:48;13.30;99.90
10249;DHT22;5169;50.560;9.714;2022-11-12T14:26:41;13.00;99.90
10249;DHT22;5169;50.560;9.714;2022-11-12T14:29:17;12.70;99.90
10249;DHT22;5169;50.560;9.714;2022-11-12T14:31:59;12.70;99.90
10249;DHT22;5169;50.560;9.714;2022-11-12T14:34:36;12.60;99.90
10249;DHT22;5169;50.560;9.714;2022-11-12T14:37:29;12.50;99.90
10249;DHT22;5169;50.560;9.714;2022-11-12T14:39:55;12.30;99.90
10249;DHT22;5169;50.560;9.714;2022-11-12T14:42:20;12.10;99.90
10249;DHT22;5169;50.560;9.714;2022-11-12T14:44:46;12.00;99.90
10249;DHT22;5169;50.560;9.714;2022-11-12T14:47:17;11.80;99.90
10249;DHT22;5169;50.560;9.714;2022-11-12T14:49:45;11.70;99.90
10249;DHT22;5169;50.560;9.714;2022-11-12T14:52:21;11.60;99.90
10249;DHT22;5169;50.560;9.714;2022-11-12T14:55:14;11.50;99.90
10249;DHT22;5169;50.560;9.714;2022-11-12T14:57:45;11.30;99.90
10249;DHT22;5169;50.560;9.714;2022-11-12T15:03:13;11.20;99.90
10249;DHT22;5169;50.560;9.714;2022-11-12T15:06:19;11.10;99.90
10249;DHT22;5169;50.560;9.714;2022-11-12T15:08:55;11.00;99.90
10249;DHT22;5169;50.560;9.714;2022-11-12T15:14:01;10.80;99.90
10249;DHT22;5169;50.560;9.714;2022-11-12T15:16:33;10.70;99.90
10249;DHT22;5169;50.560;9.714;2022-11-12T15:19:22;10.60;99.90
10249;DHT22;5169;50.560;9.714;2022-11-12T15:21:57;10.50;99.90
10249;DHT22;5169;50.560;9.714;2022-11-12T15:24:31;10.40;99.90
10249;DHT22;5169;50.560;9.714;2022-11-12T15:27:01;10.30;99.90
10249;DHT22;5169;50.560;9.714;2022-11-12T15:29:46;10.20;99.90
10249;DHT22;5169;50.560;9.714;2022-11-12T15:34:45;10.10;99.90
10249;DHT22;5169;50.560;9.714;2022-11-12T15:37:25;10.00;99.90
10249;DHT22;5169;50.560;9.714;2022-11-12T15:40:02;9.90;99.90
10249;DHT22;5169;50.560;9.714;2022-11-12T15:42:37;9.80;99.90
10249;DHT22;5169;50.560;9.714;2022-11-12T15:45:14;9.70;99.90
10249;DHT22;5169;50.560;9.714;2022-11-12T15:47:46;9.60;99.90
10249;DHT22;5169;50.560;9.714;2022-11-12T15:50:22;9.60;99.90
10249;DHT22;5169;50.560;9.714;2022-11-12T15:52:48;9.50;99.90
10249;DHT22;5169;50.560;9.714;2022-11-12T15:55:14;9.40;99.90
10249;DHT22;5169;50.560;9.714;2022-11-12T15:57:49;9.30;99.90
10249;DHT22;5169;50.560;9.714;2022-11-12T16:00:21;9.20;99.90
10249;DHT22;5169;50.560;9.714;2022-11-12T16:02:55;9.20;99.90
10249;DHT22;5169;50.560;9.714;2022-11-12T16:05:24;9.10;99.90
10249;DHT22;5169;50.560;9.714;2022-11-12T16:07:57;9.00;99.90
10249;DHT22;5169;50.560;9.714;2022-11-12T16:10:24;9.00;99.90
10249;DHT22;5169;50.560;9.714;2022-11-12T16:12:58;8.90;99.90
10249;DHT22;5169;50.560;9.714;2022-11-12T16:15:24;8.90;99.90
10249;DHT22;5169;50.560;9.714;2022-11-12T16:17:56;8.90;99.90
10249;DHT22;5169;50.560;9.714;2022-11-12T16:20:25;8.80;99.90
10249;DHT22;5169;50.560;9.714;2022-11-12T16:23:07;8.80;99.90
10249;DHT22;5169;50.560;9.714;2022-11-12T16:25:37;8.90;99.90
10249;DHT22;5169;50.560;9.714;2022-11-12T16:28:17;8.80;99.90
10249;DHT22;5169;50.560;9.714;2022-11-12T16:30:46;8.80;99.90
10249;DHT22;5169;50.560;9.714;2022-11-12T16:33:12;8.70;99.90
10249;DHT22;5169;50.560;9.714;2022-11-12T16:35:45;8.70;99.90
10249;DHT22;5169;50.560;9.714;2022-11-12T16:38:17;8.70;99.90
10249;DHT22;5169;50.560;9.714;2022-11-12T16:40:44;8.70;99.90
10249;DHT22;5169;50.560;9.714;2022-11-12T16:43:10;8.70;99.90
10249;DHT22;5169;50.560;9.714;2022-11-12T16:45:43;8.70;99.90
10249;DHT22;5169;50.560;9.714;2022-11-12T16:48:21;8.80;99.90
10249;DHT22;5169;50.560;9.714;2022-11-12T16:50:50;8.80;99.90
10249;DHT22;5169;50.560;9.714;2022-11-12T16:53:19;8.80;99.90
10249;DHT22;5169;50.560;9.714;2022-11-12T16:55:47;8.80;99.90
10249;DHT22;5169;50.560;9.714;2022-11-12T16:58:20;8.60;99.90
10249;DHT22;5169;50.560;9.714;2022-11-12T17:00:47;8.60;99.90
10249;DHT22;5169;50.560;9.714;2022-11-12T17:03:22;8.50;99.90
10249;DHT22;5169;50.560;9.714;2022-11-12T17:05:57;8.40;99.90
10249;DHT22;5169;50.560;9.714;2022-11-12T17:08:25;8.30;99.90
10249;DHT22;5169;50.560;9.714;2022-11-12T17:11:07;8.30;99.90
10249;DHT22;5169;50.560;9.714;2022-11-12T17:13:37;8.20;99.90
10249;DHT22;5169;50.560;9.714;2022-11-12T17:16:10;8.20;99.90
10249;DHT22;5169;50.560;9.714;2022-11-12T17:18:36;8.10;99.90
10249;DHT22;5169;50.560;9.714;2022-11-12T17:21:12;8.00;99.90
10249;DHT22;5169;50.560;9.714;2022-11-12T17:23:46;8.00;99.90
10249;DHT22;5169;50.560;9.714;2022-11-12T17:26:19;7.90;99.90
10249;DHT22;5169;50.560;9.714;2022-11-12T17:28:46;7.90;99.90
10249;DHT22;5169;50.560;9.714;2022-11-12T17:31:14;7.90;99.90
10249;DHT22;5169;50.560;9.714;2022-11-12T17:33:50;7.90;99.90
10249;DHT22;5169;50.560;9.714;2022-11-12T17:36:24;7.90;99.90
10249;DHT22;5169;50.560;9.714;2022-11-12T17:38:56;7.90;99.90
10249;DHT22;5169;50.560;9.714;2022-11-12T17:41:22;7.90;99.90
10249;DHT22;5169;50.560;9.714;2022-11-12T17:43:55;7.90;99.90
10249;DHT22;5169;50.560;9.714;2022-11-12T17:46:21;7.90;99.90
10249;DHT22;5169;50.560;9.714;2022-11-12T17:48:47;8.10;99.90
10249;DHT22;5169;50.560;9.714;2022-11-12T17:51:15;8.20;99.90
10249;DHT22;5169;50.560;9.714;2022-11-12T17:53:44;8.10;99.90
10249;DHT22;5169;50.560;9.714;2022-11-12T17:56:14;8.00;99.90
10249;DHT22;5169;50.560;9.714;2022-11-12T17:58:47;7.80;99.90
10249;DHT22;5169;50.560;9.714;2022-11-12T18:03:45;7.60;99.90
10249;DHT22;5169;50.560;9.714;2022-11-12T18:06:13;7.50;99.90
10249;DHT22;5169;50.560;9.714;2022-11-12T18:08:43;7.60;99.90
10249;DHT22;5169;50.560;9.714;2022-11-12T18:11:10;7.50;99.90
10249;DHT22;5169;50.560;9.714;2022-11-12T18:13:36;7.30;99.90
10249;DHT22;5169;50.560;9.714;2022-11-12T18:16:20;7.40;99.90
10249;DHT22;5169;50.560;9.714;2022-11-12T18:18:56;7.30;99.90
10249;DHT22;5169;50.560;9.714;2022-11-12T18:21:25;7.20;99.90
10249;DHT22;5169;50.560;9.714;2022-11-12T18:23:57;7.10;99.90
10249;DHT22;5169;50.560;9.714;2022-11-12T18:26:25;7.10;99.90
10249;DHT22;5169;50.560;9.714;2022-11-12T18:29:00;7.10;99.90
10249;DHT22;5169;50.560;9.714;2022-11-12T18:31:26;7.30;99.90